createdAt,value
2023-05-09T00:00:11.253Z,17.72
2023-05-09T00:03:14.411Z,17.73
2023-05-09T00:06:17.498Z,17.71
2023-05-09T00:09:19.831Z,17.64
2023-05-09T00:12:22.186Z,17.71
2023-05-09T00:15:25.731Z,17.71
2023-05-09T00:18:31.143Z,17.70
2023-05-09T00:21:34.260Z,17.66
2023-05-09T00:24:36.558Z,17.59
2023-05-09T00:27:38.904Z,17.64
2023-05-09T00:30:41.265Z,17.57
2023-05-09T00:33:43.684Z,17.56
2023-05-09T00:36:46.161Z,17.57
2023-05-09T00:39:48.776Z,17.62
2023-05-09T00:42:51.585Z,17.63
2023-05-09T00:45:54.183Z,17.56
2023-05-09T00:48:56.958Z,17.49
2023-05-09T00:51:59.393Z,17.45
2023-05-09T00:55:02.378Z,17.58
2023-05-09T00:58:04.807Z,17.52
2023-05-09T01:01:08.415Z,17.47
2023-05-09T01:04:12.396Z,17.55
2023-05-09T01:07:30.070Z,17.54
2023-05-09T01:10:44.940Z,17.45
2023-05-09T01:13:56.481Z,17.49
2023-05-09T01:17:24.661Z,17.44
2023-05-09T01:20:51.483Z,17.43
2023-05-09T01:24:17.635Z,17.41
2023-05-09T01:27:45.314Z,17.52
2023-05-09T01:30:51.765Z,17.44
2023-05-09T01:33:57.251Z,17.50
2023-05-09T01:37:01.022Z,17.38
2023-05-09T01:40:31.346Z,17.48
2023-05-09T01:43:33.997Z,17.43
2023-05-09T01:46:38.252Z,17.44
2023-05-09T01:49:41.737Z,17.35
2023-05-09T01:52:44.824Z,17.42
2023-05-09T01:55:47.445Z,17.39
2023-05-09T01:58:51.276Z,17.43
2023-05-09T02:01:55.382Z,17.40
2023-05-09T02:04:57.957Z,17.32
2023-05-09T02:08:00.956Z,17.26
2023-05-09T02:11:03.417Z,17.26
2023-05-09T02:14:06.478Z,17.39
2023-05-09T02:17:10.827Z,17.23
2023-05-09T02:20:13.594Z,17.34
2023-05-09T02:23:16.068Z,17.35
2023-05-09T02:26:18.575Z,17.27
2023-05-09T02:29:22.223Z,17.28
2023-05-09T02:32:28.223Z,17.26
2023-05-09T02:35:30.688Z,17.24
2023-05-09T02:38:33.108Z,17.20
2023-05-09T02:41:35.658Z,17.24
2023-05-09T02:44:38.917Z,17.17
2023-05-09T02:47:41.406Z,17.29
2023-05-09T02:50:44.380Z,17.16
2023-05-09T02:53:46.836Z,17.22
2023-05-09T02:56:49.295Z,17.21
2023-05-09T02:59:51.768Z,17.25
2023-05-09T03:02:54.840Z,17.21
2023-05-09T03:05:57.304Z,17.24
2023-05-09T03:08:59.757Z,17.23
2023-05-09T03:12:03.977Z,17.23
2023-05-09T03:15:07.497Z,17.09
2023-05-09T03:18:10.123Z,17.12
2023-05-09T03:21:12.867Z,17.19
2023-05-09T03:24:15.975Z,17.23
2023-05-09T03:27:18.905Z,17.21
2023-05-09T03:30:22.090Z,17.13
2023-05-09T03:33:25.445Z,17.21
2023-05-09T03:36:28.779Z,17.21
2023-05-09T03:39:31.801Z,17.14
2023-05-09T03:42:34.198Z,17.04
2023-05-09T03:45:38.468Z,17.16
2023-05-09T03:48:43.037Z,17.06
2023-05-09T03:51:45.507Z,17.07
2023-05-09T03:54:51.253Z,17.19
2023-05-09T03:57:54.443Z,17.09
2023-05-09T04:00:57.680Z,17.19
2023-05-09T04:04:01.714Z,17.15
2023-05-09T04:07:07.763Z,17.09
2023-05-09T04:10:11.575Z,17.16
2023-05-09T04:13:14.040Z,17.19
2023-05-09T04:16:17.189Z,17.14
2023-05-09T04:19:19.651Z,17.15
2023-05-09T04:22:22.026Z,17.12
2023-05-09T04:25:26.232Z,17.20
2023-05-09T04:28:28.785Z,17.29
2023-05-09T04:31:32.319Z,17.33
2023-05-09T04:34:36.139Z,17.31
2023-05-09T04:37:45.504Z,17.30
2023-05-09T04:40:47.919Z,17.28
2023-05-09T04:43:50.762Z,17.43
2023-05-09T04:46:55.197Z,17.45
2023-05-09T04:49:57.715Z,17.33
2023-05-09T04:53:00.168Z,17.54
2023-05-09T04:56:02.987Z,17.51
2023-05-09T04:59:07.101Z,17.57
2023-05-09T05:02:10.394Z,17.36
2023-05-09T05:05:13.223Z,17.40
2023-05-09T05:08:18.296Z,17.69
2023-05-09T05:11:21.638Z,17.70
2023-05-09T05:14:24.401Z,17.68
2023-05-09T05:17:29.547Z,17.82
2023-05-09T05:20:34.518Z,17.80
2023-05-09T05:23:37.220Z,17.73
2023-05-09T05:26:39.761Z,17.91
2023-05-09T05:29:42.365Z,17.99
2023-05-09T05:32:44.961Z,18.06
2023-05-09T05:35:49.219Z,18.10
2023-05-09T05:38:51.709Z,17.99
2023-05-09T05:41:54.331Z,18.19
2023-05-09T05:44:56.909Z,18.24
2023-05-09T05:47:59.924Z,18.33
2023-05-09T05:51:02.669Z,18.32
2023-05-09T05:54:07.543Z,18.32
2023-05-09T05:57:11.822Z,18.35
2023-05-09T06:00:15.396Z,18.26
2023-05-09T06:03:26.139Z,18.29
2023-05-09T06:06:37.492Z,18.66
2023-05-09T06:09:41.198Z,18.71
2023-05-09T06:12:44.078Z,18.71
2023-05-09T06:15:46.736Z,18.54
2023-05-09T06:18:49.420Z,18.74
2023-05-09T06:21:52.029Z,18.97
2023-05-09T06:28:24.949Z,19.45
2023-05-09T06:31:28.516Z,19.61
2023-05-09T06:34:58.282Z,19.72
2023-05-09T06:38:00.861Z,19.69
2023-05-09T06:41:03.868Z,19.86
2023-05-09T06:44:28.615Z,20.26
2023-05-09T06:47:36.852Z,20.59
2023-05-09T06:56:48.707Z,20.74
2023-05-09T06:59:22.768Z,21.34
2023-05-09T07:02:27.071Z,21.59
2023-05-09T07:05:29.756Z,21.64
2023-05-09T07:08:32.252Z,21.65
2023-05-09T07:11:36.192Z,22.05
2023-05-09T07:14:40.734Z,22.28
2023-05-09T07:17:46.988Z,22.14
2023-05-09T07:20:49.527Z,22.46
2023-05-09T07:23:51.998Z,22.72
2023-05-09T07:26:54.667Z,23.08
2023-05-09T07:29:57.061Z,23.34
2023-05-09T07:32:59.739Z,23.30
2023-05-09T07:36:02.655Z,23.20
2023-05-09T07:39:08.432Z,23.07
2023-05-09T07:42:11.008Z,23.01
2023-05-09T07:45:13.627Z,23.20
2023-05-09T07:48:16.465Z,23.09
2023-05-09T07:51:18.875Z,23.33
2023-05-09T07:54:21.541Z,23.16
2023-05-09T07:57:26.468Z,23.11
2023-05-09T08:00:29.093Z,23.21
2023-05-09T08:03:31.648Z,23.24
2023-05-09T08:06:34.158Z,23.03
2023-05-09T08:09:39.563Z,22.71
2023-05-09T08:12:42.222Z,22.66
2023-05-09T08:15:44.907Z,22.64
2023-05-09T08:18:47.637Z,22.27
2023-05-09T08:21:50.148Z,22.33
2023-05-09T08:24:52.595Z,21.96
2023-05-09T08:27:55.212Z,21.95
2023-05-09T08:30:57.918Z,21.86
2023-05-09T08:34:03.632Z,21.73
2023-05-09T08:37:06.288Z,21.60
2023-05-09T08:40:10.212Z,21.84
2023-05-09T08:43:13.473Z,21.80
2023-05-09T08:46:16.708Z,21.39
2023-05-09T08:50:01.170Z,21.63
2023-05-09T08:53:03.829Z,21.23
2023-05-09T08:56:06.623Z,21.27
2023-05-09T08:59:09.949Z,21.22
2023-05-09T09:02:14.565Z,21.29
2023-05-09T09:05:39.295Z,21.41
2023-05-09T09:08:40.561Z,21.26
2023-05-09T09:11:43.625Z,21.08
2023-05-09T09:14:49.449Z,21.03
2023-05-09T09:17:56.838Z,21.00
2023-05-09T09:21:07.327Z,20.96
2023-05-09T09:24:13.122Z,20.91
2023-05-09T09:27:15.716Z,21.13
2023-05-09T09:30:18.607Z,20.99
2023-05-09T09:33:26.267Z,21.11
2023-05-09T09:39:32.251Z,20.99
2023-05-09T09:42:44.426Z,20.87
2023-05-09T09:45:51.503Z,20.84
2023-05-09T09:48:57.773Z,21.05
2023-05-09T09:52:00.476Z,21.02
2023-05-09T09:55:03.404Z,20.99
2023-05-09T09:58:17.214Z,20.93
2023-05-09T10:01:20.919Z,20.93
2023-05-09T10:04:24.134Z,20.82
2023-05-09T10:07:27.090Z,20.73
2023-05-09T10:10:34.775Z,20.90
2023-05-09T10:13:38.607Z,20.82
2023-05-09T10:16:44.658Z,20.70
2023-05-09T10:19:47.890Z,20.74
2023-05-09T10:22:51.275Z,20.81
2023-05-09T10:26:42.437Z,20.79
2023-05-09T10:29:48.411Z,20.73
2023-05-09T10:33:03.929Z,20.82
2023-05-09T10:36:07.158Z,20.54
2023-05-09T10:39:10.012Z,20.64
2023-05-09T10:42:14.125Z,20.66
2023-05-09T10:45:16.874Z,20.74
2023-05-09T10:48:19.891Z,20.73
2023-05-09T10:51:24.705Z,20.69
2023-05-09T10:54:33.721Z,20.59
2023-05-09T10:57:39.533Z,20.64
2023-05-09T11:00:42.565Z,20.46
2023-05-09T11:04:00.032Z,20.51
2023-05-09T11:07:03.181Z,20.46
2023-05-09T11:10:09.971Z,20.59
2023-05-09T11:13:12.502Z,20.59
2023-05-09T11:16:14.970Z,20.60
2023-05-09T11:19:37.223Z,20.59
2023-05-09T11:22:42.426Z,20.43
2023-05-09T11:25:49.402Z,20.56
2023-05-09T11:28:53.797Z,20.52
2023-05-09T11:32:07.334Z,20.63
2023-05-09T11:35:15.646Z,20.52
2023-05-09T11:38:22.053Z,20.41
2023-05-09T11:41:24.717Z,20.23
2023-05-09T11:44:28.213Z,20.60
2023-05-09T11:47:31.018Z,20.61
2023-05-09T11:50:36.352Z,20.43
2023-05-09T11:53:48.201Z,20.52
2023-05-09T11:56:53.596Z,20.33
2023-05-09T11:59:58.676Z,20.42
2023-05-09T12:03:01.223Z,20.09
2023-05-09T12:06:03.766Z,20.41
2023-05-09T12:09:06.712Z,20.38
2023-05-09T12:12:13.982Z,20.33
2023-05-09T12:15:17.635Z,20.28
2023-05-09T12:18:20.477Z,20.20
2023-05-09T12:21:23.112Z,20.32
2023-05-09T12:24:30.005Z,20.23
2023-05-09T12:27:33.229Z,20.06
2023-05-09T12:30:36.107Z,20.15
2023-05-09T12:33:38.934Z,20.35
2023-05-09T12:36:50.745Z,20.46
2023-05-09T12:40:15.483Z,20.40
2023-05-09T12:43:18.235Z,20.49
2023-05-09T12:46:22.087Z,20.40
2023-05-09T12:49:25.344Z,20.20
2023-05-09T12:52:35.362Z,20.39
2023-05-09T12:55:41.735Z,20.28
2023-05-09T12:58:54.556Z,20.20
2023-05-09T13:01:58.697Z,20.35
2023-05-09T13:05:08.298Z,20.41
2023-05-09T13:08:11.487Z,20.28
2023-05-09T13:11:16.641Z,20.34
2023-05-09T13:14:21.816Z,20.33
2023-05-09T13:17:24.300Z,20.31
2023-05-09T13:20:26.722Z,20.10
2023-05-09T13:23:29.152Z,19.99
2023-05-09T13:26:31.750Z,19.79
2023-05-09T13:29:34.118Z,20.03
2023-05-09T13:32:39.287Z,19.97
2023-05-09T13:35:41.825Z,20.10
2023-05-09T13:38:45.716Z,20.07
2023-05-09T13:41:48.823Z,20.09
2023-05-09T13:44:51.288Z,20.41
2023-05-09T13:47:53.763Z,20.49
2023-05-09T13:50:57.876Z,20.63
2023-05-09T13:54:00.221Z,20.72
2023-05-09T13:57:05.574Z,20.58
2023-05-09T14:00:08.768Z,20.53
2023-05-09T14:03:15.103Z,20.37
2023-05-09T14:06:17.483Z,20.33
2023-05-09T14:09:22.254Z,20.29
2023-05-09T14:12:24.660Z,20.27
2023-05-09T14:15:27.063Z,20.07
2023-05-09T14:18:29.499Z,19.99
2023-05-09T14:21:31.897Z,20.12
2023-05-09T14:24:36.129Z,20.19
2023-05-09T14:27:38.697Z,20.13
2023-05-09T14:30:41.287Z,20.03
2023-05-09T14:33:44.155Z,20.13
2023-05-09T14:36:46.852Z,19.95
2023-05-09T14:39:49.807Z,19.88
2023-05-09T14:42:52.178Z,20.05
2023-05-09T14:45:55.117Z,19.95
2023-05-09T14:49:03.991Z,20.02
2023-05-09T14:52:06.410Z,19.81
2023-05-09T14:55:09.294Z,19.89
2023-05-09T14:58:14.039Z,19.78
2023-05-09T15:01:16.554Z,19.95
2023-05-09T15:04:19.054Z,19.82
2023-05-09T15:07:21.549Z,19.92
2023-05-09T15:10:24.079Z,19.81
2023-05-09T15:13:26.571Z,19.73
2023-05-09T15:16:29.231Z,19.85
2023-05-09T15:19:32.497Z,19.73
2023-05-09T15:22:34.974Z,19.85
2023-05-09T15:25:37.323Z,19.69
2023-05-09T15:28:40.082Z,19.63
2023-05-09T15:31:42.734Z,19.65
2023-05-09T15:34:45.126Z,19.53
2023-05-09T15:37:47.495Z,19.70
2023-05-09T15:40:50.071Z,19.55
2023-05-09T15:43:52.764Z,19.57
2023-05-09T15:46:57.035Z,19.44
2023-05-09T15:49:59.449Z,19.59
2023-05-09T15:53:01.822Z,19.53
2023-05-09T15:56:04.520Z,19.63
2023-05-09T15:59:07.156Z,19.53
2023-05-09T16:02:09.558Z,19.64
2023-05-09T16:05:12.521Z,19.63
2023-05-09T16:08:14.983Z,19.52
2023-05-09T16:11:17.419Z,19.44
2023-05-09T16:14:20.222Z,19.37
2023-05-09T16:17:22.874Z,19.40
2023-05-09T16:20:25.254Z,19.36
2023-05-09T16:23:27.748Z,19.58
2023-05-09T16:26:30.644Z,19.56
2023-05-09T16:29:35.459Z,19.40
2023-05-09T16:32:38.292Z,19.35
2023-05-09T16:35:41.165Z,19.29
2023-05-09T16:38:43.704Z,19.49
2023-05-09T16:41:46.305Z,19.05
2023-05-09T16:44:49.083Z,19.35
2023-05-09T16:47:51.556Z,19.30
2023-05-09T16:50:54.070Z,19.27
2023-05-09T16:53:56.554Z,19.26
2023-05-09T16:56:58.934Z,19.28
2023-05-09T17:00:01.464Z,19.33
2023-05-09T17:03:03.929Z,19.29
2023-05-09T17:06:06.838Z,19.24
2023-05-09T17:09:09.318Z,19.18
2023-05-09T17:12:17.541Z,19.19
2023-05-09T17:15:20.090Z,19.11
2023-05-09T17:18:35.905Z,19.06
2023-05-09T17:21:41.537Z,19.06
2023-05-09T17:24:44.135Z,19.22
2023-05-09T17:27:46.570Z,18.88
2023-05-09T17:30:48.924Z,18.94
2023-05-09T17:33:51.341Z,19.03
2023-05-09T17:36:53.943Z,19.00
2023-05-09T17:39:56.460Z,19.05
2023-05-09T17:42:59.318Z,18.94
2023-05-09T17:46:01.819Z,18.80
2023-05-09T17:49:04.192Z,18.93
2023-05-09T17:52:06.933Z,19.05
2023-05-09T17:55:10.123Z,19.04
2023-05-09T17:58:12.860Z,19.01
2023-05-09T18:01:15.726Z,18.74
2023-05-09T18:04:19.073Z,18.98
2023-05-09T18:07:21.459Z,18.69
2023-05-09T18:10:23.832Z,18.82
2023-05-09T18:13:26.736Z,18.73
2023-05-09T18:16:29.367Z,18.82
2023-05-09T18:19:32.035Z,18.63
2023-05-09T18:22:34.603Z,18.76
2023-05-09T18:25:38.684Z,18.85
2023-05-09T18:28:41.445Z,18.62
2023-05-09T18:31:43.939Z,18.69
2023-05-09T18:34:48.542Z,18.56
2023-05-09T18:37:51.464Z,18.60
2023-05-09T18:40:54.088Z,18.36
2023-05-09T18:43:57.926Z,18.70
2023-05-09T18:47:00.594Z,18.38
2023-05-09T18:50:04.700Z,18.44
2023-05-09T18:53:07.549Z,18.51
2023-05-09T18:56:10.056Z,18.55
2023-05-09T18:59:13.795Z,18.47
2023-05-09T19:02:16.899Z,18.45
2023-05-09T19:05:20.586Z,18.38
2023-05-09T19:08:23.424Z,18.31
2023-05-09T19:11:25.854Z,18.20
2023-05-09T19:14:28.302Z,18.34
2023-05-09T19:17:31.781Z,18.34
2023-05-09T19:20:34.434Z,18.41
2023-05-09T19:23:36.967Z,18.42
2023-05-09T19:26:39.328Z,18.27
2023-05-09T19:29:41.801Z,18.17
2023-05-09T19:32:44.439Z,18.28
2023-05-09T19:35:47.057Z,18.22
2023-05-09T19:38:49.629Z,18.13
2023-05-09T19:41:52.248Z,18.06
2023-05-09T19:44:54.850Z,18.12
2023-05-09T19:47:59.068Z,18.11
2023-05-09T19:51:01.758Z,18.00
2023-05-09T19:54:04.763Z,17.97
2023-05-09T19:57:07.304Z,18.18
2023-05-09T20:00:10.118Z,18.19
2023-05-09T20:03:14.513Z,18.07
2023-05-09T20:06:17.164Z,17.90
2023-05-09T20:09:21.105Z,17.96
2023-05-09T20:12:23.615Z,17.92
2023-05-09T20:15:26.063Z,17.94
2023-05-09T20:18:28.634Z,17.92
2023-05-09T20:21:31.094Z,17.79
2023-05-09T20:24:33.717Z,17.80
2023-05-09T20:27:37.413Z,17.90
2023-05-09T20:30:39.941Z,17.74
2023-05-09T20:33:42.383Z,17.85
2023-05-09T20:36:52.190Z,17.92
2023-05-09T20:39:55.821Z,17.85
2023-05-09T20:42:58.181Z,17.85
2023-05-09T20:46:01.078Z,17.84
2023-05-09T20:49:06.551Z,17.76
2023-05-09T20:52:08.901Z,17.93
2023-05-09T20:55:11.457Z,17.79
2023-05-09T20:58:14.931Z,17.74
2023-05-09T21:01:17.439Z,17.73
2023-05-09T21:04:20.000Z,17.87
2023-05-09T21:07:22.792Z,17.66
2023-05-09T21:10:25.985Z,17.65
2023-05-09T21:13:28.523Z,17.70
2023-05-09T21:16:31.086Z,17.82
2023-05-09T21:19:34.261Z,17.70
2023-05-09T21:22:37.052Z,17.75
2023-05-09T21:25:39.438Z,17.58
2023-05-09T21:28:42.154Z,17.63
2023-05-09T21:31:44.606Z,17.60
2023-05-09T21:34:47.845Z,17.75
2023-05-09T21:37:52.639Z,17.47
2023-05-09T21:40:55.393Z,17.55
2023-05-09T21:43:57.794Z,17.48
2023-05-09T21:47:00.403Z,17.58
2023-05-09T21:50:04.254Z,17.64
2023-05-09T21:53:06.652Z,17.70
2023-05-09T21:56:09.117Z,17.43
2023-05-09T21:59:11.724Z,17.53
2023-05-09T22:02:14.556Z,17.48
2023-05-09T22:05:17.008Z,17.43
2023-05-09T22:08:19.474Z,17.57
2023-05-09T22:11:22.281Z,17.48
2023-05-09T22:14:24.785Z,17.37
2023-05-09T22:17:27.154Z,17.66
2023-05-09T22:20:29.575Z,17.50
2023-05-09T22:23:31.934Z,17.63
2023-05-09T22:26:34.500Z,17.60
2023-05-09T22:29:37.229Z,17.64
2023-05-09T22:32:40.307Z,17.58
2023-05-09T22:35:42.702Z,17.64
2023-05-09T22:38:45.031Z,17.62
2023-05-09T22:41:47.747Z,17.37
2023-05-09T22:44:50.833Z,17.63
2023-05-09T22:47:53.273Z,17.49
2023-05-09T22:50:55.840Z,17.63
2023-05-09T22:53:58.595Z,17.53
2023-05-09T22:57:01.015Z,17.49
2023-05-09T23:00:04.818Z,17.20
2023-05-09T23:03:07.486Z,17.24
2023-05-09T23:06:09.968Z,17.37
2023-05-09T23:09:12.463Z,17.40
2023-05-09T23:12:17.535Z,17.45
2023-05-09T23:15:27.747Z,17.38
2023-05-09T23:18:31.108Z,17.43
2023-05-09T23:21:33.883Z,17.48
2023-05-09T23:24:36.562Z,17.45
2023-05-09T23:27:40.754Z,17.50
2023-05-09T23:30:43.125Z,17.47
2023-05-09T23:33:45.629Z,17.63
2023-05-09T23:36:47.999Z,17.41
2023-05-09T23:39:50.338Z,17.64
2023-05-09T23:42:52.842Z,17.36
2023-05-09T23:45:56.715Z,17.47
2023-05-09T23:48:59.152Z,17.63
2023-05-09T23:52:01.512Z,17.52
2023-05-09T23:55:04.302Z,17.65
2023-05-09T23:58:06.687Z,17.65
